createdAt,value
2023-05-11T00:02:34.674Z,88.30
2023-05-11T00:05:01.627Z,89.70
2023-05-11T00:09:33.362Z,88.40
2023-05-11T00:12:00.152Z,89.00
2023-05-11T00:16:21.328Z,88.20
2023-05-11T00:18:49.191Z,89.40
2023-05-11T00:21:16.014Z,88.60
2023-05-11T00:25:03.535Z,88.40
2023-05-11T00:27:30.540Z,88.90
2023-05-11T00:33:18.302Z,88.90
2023-05-11T00:35:45.039Z,88.70
2023-05-11T00:40:07.560Z,90.10
2023-05-11T00:42:34.567Z,89.40
2023-05-11T00:45:01.654Z,89.10
2023-05-11T00:47:28.408Z,88.60
2023-05-11T00:51:41.098Z,89.10
2023-05-11T00:54:39.783Z,88.60
2023-05-11T00:57:06.510Z,88.70
2023-05-11T01:02:04.238Z,88.70
2023-05-11T01:06:52.385Z,88.70
2023-05-11T01:15:08.560Z,88.80
2023-05-11T01:27:18.665Z,89.70
2023-05-11T01:31:46.794Z,90.00
2023-05-11T01:39:37.352Z,90.50
2023-05-11T01:42:08.991Z,90.30
2023-05-11T01:44:36.996Z,90.60
2023-05-11T01:51:00.533Z,90.70
2023-05-11T01:54:48.661Z,91.50
2023-05-11T01:57:15.589Z,91.80
2023-05-11T01:59:42.366Z,91.60
2023-05-11T02:02:33.474Z,91.80
2023-05-11T02:05:53.987Z,91.80
2023-05-11T02:08:20.884Z,91.80
2023-05-11T02:11:24.241Z,91.60
2023-05-11T02:13:50.976Z,92.00
2023-05-11T02:16:17.764Z,92.30
2023-05-11T02:18:44.536Z,92.20
2023-05-11T02:21:11.977Z,92.00
2023-05-11T02:23:38.756Z,92.20
2023-05-11T02:28:50.147Z,92.40
2023-05-11T02:35:25.348Z,92.10
2023-05-11T02:40:19.648Z,91.80
2023-05-11T02:42:48.041Z,92.00
2023-05-11T02:46:01.139Z,92.00
2023-05-11T02:48:29.187Z,92.10
2023-05-11T02:50:56.275Z,92.30
2023-05-11T02:56:57.097Z,92.60
2023-05-11T03:01:08.000Z,92.50
2023-05-11T03:03:34.907Z,93.10
2023-05-11T03:06:01.750Z,92.80
2023-05-11T03:08:28.557Z,93.00
2023-05-11T03:14:54.161Z,92.80
2023-05-11T03:17:21.168Z,93.30
2023-05-11T03:21:33.437Z,93.20
2023-05-11T03:26:35.159Z,93.40
2023-05-11T03:29:01.922Z,93.00
2023-05-11T03:32:03.444Z,93.00
2023-05-11T03:34:58.247Z,92.90
2023-05-11T03:38:12.489Z,93.00
2023-05-11T03:46:57.594Z,93.30
2023-05-11T03:49:24.333Z,93.50
2023-05-11T03:52:05.902Z,92.90
2023-05-11T03:57:21.692Z,93.30
2023-05-11T03:59:48.493Z,93.50
2023-05-11T04:02:15.324Z,93.30
2023-05-11T04:05:18.614Z,93.50
2023-05-11T04:10:24.271Z,93.20
2023-05-11T04:14:29.221Z,93.40
2023-05-11T04:17:51.463Z,93.50
2023-05-11T04:22:03.212Z,93.40
2023-05-11T04:24:29.936Z,93.90
2023-05-11T04:26:57.348Z,93.50
2023-05-11T04:29:24.076Z,94.00
2023-05-11T04:31:50.909Z,93.60
2023-05-11T04:34:17.600Z,94.00
2023-05-11T04:41:18.268Z,93.50
2023-05-11T04:43:44.982Z,93.50
2023-05-11T04:46:11.719Z,93.50
2023-05-11T04:48:38.507Z,93.30
2023-05-11T04:56:06.635Z,93.50
2023-05-11T04:59:21.837Z,93.30
2023-05-11T05:04:36.538Z,93.70
2023-05-11T05:08:36.533Z,93.50
2023-05-11T05:11:03.304Z,93.80
2023-05-11T05:13:30.177Z,94.20
2023-05-11T05:16:32.754Z,93.60
2023-05-11T05:20:04.530Z,94.10
2023-05-11T05:23:41.385Z,93.80
2023-05-11T05:26:08.119Z,93.90
2023-05-11T05:30:43.293Z,93.60
2023-05-11T05:35:17.028Z,93.20
2023-05-11T05:39:03.767Z,93.60
2023-05-11T05:42:03.099Z,93.80
2023-05-11T05:44:29.844Z,93.30
2023-05-11T05:46:56.576Z,93.60
2023-05-11T05:49:49.197Z,93.40
2023-05-11T05:56:06.725Z,94.20
2023-05-11T05:59:42.443Z,94.50
2023-05-11T06:02:09.183Z,95.00
2023-05-11T06:10:02.048Z,93.30
2023-05-11T06:14:45.588Z,93.30
2023-05-11T06:17:12.309Z,92.70
2023-05-11T06:19:40.544Z,92.60
2023-05-11T06:22:07.872Z,92.40
2023-05-11T06:24:48.137Z,92.50
2023-05-11T06:27:17.336Z,93.20
2023-05-11T06:29:44.970Z,92.30
2023-05-11T06:32:11.791Z,92.90
2023-05-11T06:34:39.460Z,92.90
2023-05-11T06:37:06.336Z,92.90
2023-05-11T06:43:12.225Z,92.40
2023-05-11T06:45:39.145Z,92.70
2023-05-11T06:48:06.724Z,92.50
2023-05-11T06:50:33.556Z,91.90
2023-05-11T06:53:00.719Z,91.90
2023-05-11T06:55:27.852Z,91.80
2023-05-11T07:00:31.871Z,92.20
2023-05-11T07:06:36.528Z,91.40
2023-05-11T07:09:35.937Z,91.70
2023-05-11T07:12:02.861Z,91.80
2023-05-11T07:14:29.630Z,91.20
2023-05-11T07:16:56.378Z,91.50
2023-05-11T07:20:01.213Z,91.20
2023-05-11T07:22:27.970Z,90.70
2023-05-11T07:27:20.708Z,90.40
2023-05-11T07:30:12.741Z,90.30
2023-05-11T07:32:39.497Z,90.40
2023-05-11T07:38:27.029Z,91.30
2023-05-11T07:40:53.863Z,91.30
2023-05-11T07:43:20.572Z,91.20
2023-05-11T07:45:47.303Z,90.40
2023-05-11T07:48:14.161Z,90.00
2023-05-11T07:52:29.943Z,88.70
2023-05-11T07:54:56.690Z,90.00
2023-05-11T07:57:23.408Z,89.90
2023-05-11T07:59:50.292Z,89.90
2023-05-11T08:03:30.724Z,88.70
2023-05-11T08:05:58.165Z,88.10
2023-05-11T08:08:25.235Z,86.70
2023-05-11T08:10:51.975Z,86.60
2023-05-11T08:13:37.643Z,85.50
2023-05-11T08:16:04.890Z,86.10
2023-05-11T08:18:32.056Z,86.00
2023-05-11T08:23:36.895Z,87.20
2023-05-11T08:26:03.798Z,88.20
2023-05-11T08:29:29.260Z,86.50
2023-05-11T08:34:19.074Z,86.00
2023-05-11T08:36:47.310Z,88.20
2023-05-11T08:39:14.154Z,87.50
2023-05-11T08:43:43.793Z,87.30
2023-05-11T08:46:10.781Z,87.40
2023-05-11T08:49:47.583Z,86.30
2023-05-11T08:54:00.189Z,86.70
2023-05-11T08:56:27.885Z,86.80
2023-05-11T08:58:56.160Z,86.20
2023-05-11T09:04:10.724Z,86.40
2023-05-11T09:06:37.428Z,88.70
2023-05-11T09:09:04.288Z,85.90
2023-05-11T09:11:30.994Z,86.80
2023-05-11T09:13:57.829Z,86.50
2023-05-11T09:16:36.201Z,87.00
2023-05-11T09:20:00.326Z,87.00
2023-05-11T09:24:27.940Z,86.90
2023-05-11T09:31:39.632Z,87.90
2023-05-11T09:34:10.157Z,87.30
2023-05-11T09:36:36.907Z,87.30
2023-05-11T09:41:11.879Z,87.10
2023-05-11T09:44:54.070Z,86.50
2023-05-11T09:48:22.188Z,86.30
2023-05-11T09:50:49.489Z,86.60
2023-05-11T09:53:16.955Z,87.00
2023-05-11T09:56:04.361Z,88.40
2023-05-11T09:59:53.152Z,88.00
2023-05-11T10:05:01.128Z,90.10
2023-05-11T10:11:36.129Z,86.60
2023-05-11T10:17:20.064Z,86.40
2023-05-11T10:19:50.078Z,88.80
2023-05-11T10:22:52.580Z,87.70
2023-05-11T10:25:23.242Z,88.70
2023-05-11T10:27:50.543Z,86.30
2023-05-11T10:30:17.685Z,86.50
2023-05-11T10:32:47.878Z,86.10
2023-05-11T10:35:35.037Z,84.80
2023-05-11T10:38:01.743Z,83.80
2023-05-11T10:40:28.565Z,84.20
2023-05-11T10:43:16.161Z,80.60
2023-05-11T10:48:30.477Z,82.30
2023-05-11T10:51:25.204Z,83.30
2023-05-11T10:53:58.220Z,82.60
2023-05-11T10:57:43.318Z,80.80
2023-05-11T11:00:43.475Z,80.80
2023-05-11T11:03:11.309Z,80.80
2023-05-11T11:06:03.500Z,78.20
2023-05-11T11:08:34.132Z,81.80
2023-05-11T11:11:32.991Z,80.50
2023-05-11T11:14:02.484Z,80.40
2023-05-11T11:16:30.166Z,77.20
2023-05-11T11:21:08.937Z,78.10
2023-05-11T11:23:49.021Z,78.10
2023-05-11T11:29:19.902Z,78.70
2023-05-11T11:31:46.793Z,78.90
2023-05-11T11:36:53.009Z,78.80
2023-05-11T11:39:19.754Z,79.50
2023-05-11T11:43:45.030Z,80.10
2023-05-11T11:46:11.771Z,82.00
2023-05-11T11:48:40.480Z,81.00
2023-05-11T11:51:11.159Z,80.30
2023-05-11T11:53:38.179Z,80.00
2023-05-11T11:56:06.259Z,78.90
2023-05-11T11:58:45.130Z,80.00
2023-05-11T12:01:16.976Z,80.40
2023-05-11T12:03:47.089Z,79.80
2023-05-11T12:06:14.184Z,80.00
2023-05-11T12:08:41.150Z,80.80
2023-05-11T12:12:08.939Z,82.60
2023-05-11T12:14:35.985Z,83.20
2023-05-11T12:17:30.864Z,81.60
2023-05-11T12:20:14.566Z,82.00
2023-05-11T12:22:41.620Z,81.00
2023-05-11T12:25:11.299Z,80.80
2023-05-11T12:27:50.470Z,80.80
2023-05-11T12:32:14.078Z,79.00
2023-05-11T12:34:41.296Z,79.50
2023-05-11T12:37:08.717Z,79.00
2023-05-11T12:39:36.158Z,79.90
2023-05-11T12:42:26.577Z,79.50
2023-05-11T12:44:54.471Z,80.70
2023-05-11T12:49:25.812Z,81.70
2023-05-11T12:51:59.122Z,82.50
2023-05-11T12:54:48.906Z,80.20
2023-05-11T12:57:29.284Z,81.20
2023-05-11T13:00:16.514Z,80.60
2023-05-11T13:02:52.485Z,82.60
2023-05-11T13:05:23.494Z,82.50
2023-05-11T13:12:07.492Z,83.40
2023-05-11T13:14:34.430Z,83.90
2023-05-11T13:17:32.300Z,83.40
2023-05-11T13:20:21.541Z,83.10
2023-05-11T13:22:48.795Z,83.30
2023-05-11T13:25:16.858Z,85.10
2023-05-11T13:27:43.894Z,87.00
2023-05-11T13:30:11.486Z,83.60
2023-05-11T13:32:38.965Z,83.40
2023-05-11T13:36:49.100Z,83.30
2023-05-11T13:39:16.266Z,82.60
2023-05-11T13:41:42.974Z,81.60
2023-05-11T13:44:09.850Z,82.20
2023-05-11T13:48:30.372Z,81.60
2023-05-11T13:50:57.078Z,82.50
2023-05-11T13:53:23.821Z,82.00
2023-05-11T13:55:50.510Z,79.30
2023-05-11T13:58:18.006Z,81.40
2023-05-11T14:00:53.317Z,82.70
2023-05-11T14:03:32.038Z,82.90
2023-05-11T14:05:58.935Z,82.90
2023-05-11T14:08:25.771Z,83.40
2023-05-11T14:12:00.811Z,83.20
2023-05-11T14:14:27.530Z,82.70
2023-05-11T14:16:54.334Z,83.40
2023-05-11T14:19:21.084Z,82.20
2023-05-11T14:21:48.658Z,79.90
2023-05-11T14:24:15.506Z,80.60
2023-05-11T14:26:42.340Z,81.00
2023-05-11T14:29:09.084Z,79.20
2023-05-11T14:31:47.099Z,80.50
2023-05-11T14:34:14.041Z,81.40
2023-05-11T14:36:40.897Z,80.80
2023-05-11T14:39:07.609Z,82.00
2023-05-11T14:41:34.349Z,82.20
2023-05-11T14:44:01.117Z,77.60
2023-05-11T14:46:28.047Z,79.00
2023-05-11T14:48:54.789Z,79.70
2023-05-11T14:51:21.545Z,79.40
2023-05-11T14:53:48.233Z,80.70
2023-05-11T14:56:14.936Z,81.40
2023-05-11T15:02:50.342Z,82.60
2023-05-11T15:05:17.501Z,83.30
2023-05-11T15:07:44.429Z,83.10
2023-05-11T15:10:11.280Z,85.20
2023-05-11T15:12:38.126Z,86.20
2023-05-11T15:15:05.318Z,85.60
2023-05-11T15:17:32.129Z,85.00
2023-05-11T15:19:58.967Z,84.20
2023-05-11T15:22:25.812Z,81.70
2023-05-11T15:29:03.639Z,84.90
2023-05-11T15:31:30.841Z,85.10
2023-05-11T15:33:57.797Z,84.00
2023-05-11T15:36:24.657Z,86.30
2023-05-11T15:40:16.301Z,85.90
2023-05-11T15:44:11.554Z,86.00
2023-05-11T15:46:38.669Z,88.20
2023-05-11T15:50:50.705Z,87.40
2023-05-11T15:53:18.096Z,90.00
2023-05-11T15:56:42.026Z,90.40
2023-05-11T15:59:09.020Z,90.90
2023-05-11T16:02:12.282Z,91.00
2023-05-11T16:07:23.418Z,90.80
2023-05-11T16:09:50.199Z,90.20
2023-05-11T16:12:16.917Z,89.70
2023-05-11T16:15:35.253Z,90.40
2023-05-11T16:18:04.639Z,90.50
2023-05-11T16:20:32.198Z,88.60
2023-05-11T16:24:56.437Z,87.90
2023-05-11T16:27:23.490Z,90.00
2023-05-11T16:29:51.165Z,88.60
2023-05-11T16:35:53.716Z,89.00
2023-05-11T16:41:03.695Z,90.00
2023-05-11T16:43:30.564Z,90.20
2023-05-11T16:45:57.355Z,90.60
2023-05-11T16:48:26.816Z,90.80
2023-05-11T16:50:55.522Z,90.80
2023-05-11T16:53:27.120Z,91.10
2023-05-11T16:55:56.977Z,91.00
2023-05-11T16:58:24.068Z,90.90
2023-05-11T17:00:51.591Z,91.20
2023-05-11T17:04:56.238Z,90.80
2023-05-11T17:07:23.044Z,91.20
2023-05-11T17:10:57.416Z,90.80
2023-05-11T17:13:24.138Z,91.30
2023-05-11T17:15:55.990Z,91.70
2023-05-11T17:18:23.382Z,91.70
2023-05-11T17:21:42.204Z,91.20
2023-05-11T17:24:10.784Z,90.40
2023-05-11T17:26:51.563Z,91.00
2023-05-11T17:29:18.354Z,91.30
2023-05-11T17:31:48.822Z,91.90
2023-05-11T17:37:50.909Z,91.10
2023-05-11T17:43:47.890Z,91.60
2023-05-11T17:46:16.206Z,91.50
2023-05-11T17:48:43.106Z,91.50
2023-05-11T17:53:39.812Z,91.90
2023-05-11T17:56:09.915Z,92.90
2023-05-11T17:58:36.747Z,92.80
2023-05-11T18:03:13.622Z,92.40
2023-05-11T18:06:21.727Z,92.50
2023-05-11T18:08:48.716Z,93.60
2023-05-11T18:12:38.907Z,92.80
2023-05-11T18:15:06.289Z,93.30
2023-05-11T18:19:16.005Z,93.80
2023-05-11T18:21:42.921Z,94.30
2023-05-11T18:24:10.172Z,94.10
2023-05-11T18:27:06.286Z,94.70
2023-05-11T18:32:54.762Z,94.80
2023-05-11T18:35:22.014Z,95.20
2023-05-11T18:44:03.278Z,94.20
2023-05-11T18:47:19.240Z,94.50
2023-05-11T19:06:44.011Z,96.10
2023-05-11T19:10:24.586Z,96.50
2023-05-11T19:12:51.371Z,96.50
2023-05-11T19:16:23.475Z,96.40
2023-05-11T19:19:37.723Z,96.80
2023-05-11T19:26:15.630Z,96.80
2023-05-11T19:28:42.704Z,96.70
2023-05-11T19:32:19.496Z,97.60
2023-05-11T19:43:36.522Z,98.50
2023-05-11T19:59:32.323Z,98.00
2023-05-11T20:06:48.091Z,98.30
2023-05-11T20:24:46.466Z,99.00
2023-05-11T20:27:33.700Z,98.90
2023-05-11T20:30:00.525Z,99.30
2023-05-11T20:32:27.305Z,99.20
2023-05-11T20:46:34.794Z,99.90
2023-05-11T20:52:17.549Z,99.90
2023-05-11T20:57:52.154Z,99.90
2023-05-11T21:03:47.329Z,99.90
2023-05-11T21:20:16.442Z,99.90
2023-05-11T21:22:43.259Z,99.90
2023-05-11T21:25:10.069Z,99.90
2023-05-11T21:28:08.437Z,99.90
2023-05-11T21:30:35.389Z,99.90
2023-05-11T21:33:02.200Z,99.90
2023-05-11T21:37:19.796Z,99.90
2023-05-11T21:39:49.728Z,99.80
2023-05-11T21:44:20.357Z,99.50
2023-05-11T21:48:47.166Z,98.90
2023-05-11T21:58:49.494Z,99.10
2023-05-11T22:06:35.806Z,99.30
2023-05-11T22:10:37.531Z,99.30
2023-05-11T22:15:23.164Z,99.30
2023-05-11T22:17:50.014Z,99.30
2023-05-11T22:34:37.483Z,99.60
2023-05-11T22:42:30.878Z,99.60
2023-05-11T22:45:35.182Z,99.90
2023-05-11T22:48:02.425Z,99.90
2023-05-11T22:55:08.289Z,99.70
2023-05-11T22:59:56.276Z,99.90
2023-05-11T23:02:23.249Z,99.90
2023-05-11T23:06:59.535Z,99.90
2023-05-11T23:09:26.563Z,99.90
2023-05-11T23:11:53.534Z,99.90
2023-05-11T23:17:39.014Z,99.60
2023-05-11T23:27:48.379Z,99.80
2023-05-11T23:31:47.905Z,99.70
2023-05-11T23:36:12.135Z,99.90
2023-05-11T23:51:42.292Z,99.90
2023-05-11T23:55:52.095Z,99.90
2023-05-11T23:58:18.855Z,99.90
